createdAt,value
2023-04-28T00:00:23.847Z,14.900
2023-04-28T00:01:29.904Z,14.900
2023-04-28T00:04:33.215Z,14.900
2023-04-28T00:05:29.191Z,14.850
2023-04-28T00:06:26.645Z,14.800
2023-04-28T00:07:23.313Z,14.800
2023-04-28T00:08:35.441Z,14.800
2023-04-28T00:11:20.778Z,14.700
2023-04-28T00:12:35.464Z,14.700
2023-04-28T00:13:27.548Z,14.700
2023-04-28T00:14:22.518Z,14.700
2023-04-28T00:15:32.784Z,14.700
2023-04-28T00:16:31.166Z,14.700
2023-04-28T00:19:45.015Z,14.600
2023-04-28T00:20:26.359Z,14.600
2023-04-28T00:21:20.714Z,14.500
2023-04-28T00:23:32.445Z,14.500
2023-04-28T00:24:28.654Z,14.500
2023-04-28T00:26:59.717Z,14.500
2023-04-28T00:27:40.681Z,14.500
2023-04-28T00:28:34.667Z,14.450
2023-04-28T00:29:19.419Z,14.400
2023-04-28T00:30:36.091Z,14.400
2023-04-28T00:31:24.068Z,14.400
2023-04-28T00:32:25.188Z,14.400
2023-04-28T00:34:28.687Z,14.400
2023-04-28T00:35:22.285Z,14.400
2023-04-28T00:36:22.459Z,14.400
2023-04-28T00:37:28.678Z,14.400
2023-04-28T00:38:33.793Z,14.400
2023-04-28T00:39:22.801Z,14.400
2023-04-28T00:40:22.427Z,14.400
2023-04-28T00:41:25.486Z,14.400
2023-04-28T00:42:37.193Z,14.400
2023-04-28T00:43:25.372Z,14.400
2023-04-28T00:45:26.787Z,14.400
2023-04-28T00:46:33.473Z,14.400
2023-04-28T00:48:20.016Z,14.400
2023-04-28T00:49:21.374Z,14.400
2023-04-28T00:50:31.072Z,14.400
2023-04-28T00:51:32.273Z,14.350
2023-04-28T00:52:23.833Z,14.300
2023-04-28T00:53:38.450Z,14.300
2023-04-28T00:55:19.962Z,14.300
2023-04-28T00:56:21.933Z,14.300
2023-04-28T00:57:31.604Z,14.200
2023-04-28T00:58:26.980Z,14.300
2023-04-28T00:59:25.279Z,14.300
2023-04-28T01:00:34.877Z,14.300
2023-04-28T01:06:38.336Z,14.300
2023-04-28T01:08:33.402Z,14.200
2023-04-28T01:09:25.565Z,14.200
2023-04-28T01:14:36.706Z,14.200
2023-04-28T01:15:33.317Z,14.200
2023-04-28T01:16:20.780Z,14.200
2023-04-28T01:18:29.896Z,14.200
2023-04-28T01:19:29.718Z,14.200
2023-04-28T01:20:23.325Z,14.200
2023-04-28T01:21:32.953Z,14.200
2023-04-28T01:22:38.241Z,14.200
2023-04-28T01:23:23.182Z,14.200
2023-04-28T01:25:22.066Z,14.200
2023-04-28T01:27:23.650Z,14.200
2023-04-28T01:28:34.319Z,14.200
2023-04-28T01:29:29.288Z,14.200
2023-04-28T01:30:27.247Z,14.200
2023-04-28T01:31:21.209Z,14.200
2023-04-28T01:32:32.412Z,14.200
2023-04-28T01:33:23.810Z,14.200
2023-04-28T01:34:23.396Z,14.200
2023-04-28T01:35:33.170Z,14.200
2023-04-28T01:36:32.038Z,14.200
2023-04-28T01:37:25.061Z,14.200
2023-04-28T01:38:37.958Z,14.200
2023-04-28T01:40:23.804Z,14.100
2023-04-28T01:42:36.821Z,14.100
2023-04-28T01:43:47.109Z,14.100
2023-04-28T01:44:27.363Z,14.100
2023-04-28T01:46:31.121Z,14.200
2023-04-28T01:48:19.853Z,14.100
2023-04-28T01:49:33.596Z,14.100
2023-04-28T01:50:30.816Z,14.100
2023-04-28T01:51:25.136Z,14.100
2023-04-28T01:52:23.067Z,14.100
2023-04-28T01:53:32.605Z,14.100
2023-04-28T01:54:28.748Z,14.100
2023-04-28T01:55:24.307Z,14.100
2023-04-28T01:57:30.082Z,14.100
2023-04-28T01:58:27.491Z,14.100
2023-04-28T01:59:21.097Z,14.050
2023-04-28T02:00:31.312Z,14.000
2023-04-28T02:01:28.976Z,14.000
2023-04-28T02:02:23.527Z,14.000
2023-04-28T02:04:19.965Z,14.000
2023-04-28T02:05:27.352Z,14.000
2023-04-28T02:06:21.304Z,14.000
2023-04-28T02:07:32.886Z,14.000
2023-04-28T02:08:27.495Z,14.000
2023-04-28T02:09:24.902Z,14.000
2023-04-28T02:10:23.233Z,14.000
2023-04-28T02:11:23.721Z,13.900
2023-04-28T02:12:25.624Z,13.900
2023-04-28T02:13:22.531Z,13.900
2023-04-28T02:14:33.466Z,13.900
2023-04-28T02:15:27.575Z,14.000
2023-04-28T02:16:24.636Z,14.000
2023-04-28T02:17:26.289Z,14.000
2023-04-28T02:19:21.062Z,14.000
2023-04-28T02:20:22.755Z,14.100
2023-04-28T02:21:20.209Z,14.100
2023-04-28T02:22:28.683Z,14.200
2023-04-28T02:23:23.632Z,14.200
2023-04-28T02:24:28.412Z,14.200
2023-04-28T02:25:27.015Z,14.200
2023-04-28T02:26:40.298Z,14.200
2023-04-28T02:28:24.326Z,14.200
2023-04-28T02:29:27.388Z,14.200
2023-04-28T02:30:24.638Z,14.200
2023-04-28T02:31:33.397Z,14.300
2023-04-28T02:32:30.504Z,14.300
2023-04-28T02:33:25.639Z,14.300
2023-04-28T02:35:28.638Z,14.400
2023-04-28T02:36:43.476Z,14.400
2023-04-28T02:37:24.205Z,14.450
2023-04-28T02:38:36.491Z,14.500
2023-04-28T02:39:22.433Z,14.500
2023-04-28T02:40:26.428Z,14.500
2023-04-28T02:41:21.267Z,14.500
2023-04-28T02:42:20.352Z,14.500
2023-04-28T02:43:27.879Z,14.500
2023-04-28T02:44:24.280Z,14.500
2023-04-28T02:45:33.203Z,14.500
2023-04-28T02:46:26.446Z,14.500
2023-04-28T02:47:25.667Z,14.600
2023-04-28T02:48:24.050Z,14.600
2023-04-28T02:49:23.793Z,14.600
2023-04-28T02:50:19.120Z,14.600
2023-04-28T02:51:25.874Z,14.700
2023-04-28T02:52:35.214Z,14.700
2023-04-28T02:54:25.312Z,14.700
2023-04-28T02:55:29.196Z,14.700
2023-04-28T02:56:21.441Z,14.700
2023-04-28T02:57:22.434Z,14.700
2023-04-28T02:58:23.332Z,14.800
2023-04-28T02:59:33.624Z,14.700
2023-04-28T03:00:30.169Z,14.700
2023-04-28T03:01:25.515Z,14.700
2023-04-28T03:02:22.952Z,14.700
2023-04-28T03:03:27.289Z,14.700
2023-04-28T03:04:26.963Z,14.700
2023-04-28T03:05:20.308Z,14.700
2023-04-28T03:06:35.876Z,14.700
2023-04-28T03:07:29.624Z,14.750
2023-04-28T03:09:21.305Z,14.900
2023-04-28T03:10:31.503Z,14.900
2023-04-28T03:11:24.142Z,14.900
2023-04-28T03:13:33.140Z,14.900
2023-04-28T03:15:25.393Z,14.900
2023-04-28T03:16:20.978Z,14.900
2023-04-28T03:17:33.345Z,14.900
2023-04-28T03:18:27.585Z,14.900
2023-04-28T03:19:23.435Z,15.000
2023-04-28T03:20:19.588Z,15.000
2023-04-28T03:21:31.003Z,15.000
2023-04-28T03:22:21.650Z,15.000
2023-04-28T03:23:21.254Z,15.000
2023-04-28T03:24:31.540Z,15.100
2023-04-28T03:25:31.484Z,15.100
2023-04-28T03:26:22.791Z,15.100
2023-04-28T03:27:23.689Z,15.100
2023-04-28T03:28:27.900Z,15.100
2023-04-28T03:30:22.447Z,15.100
2023-04-28T03:31:32.800Z,15.100
2023-04-28T03:33:27.181Z,15.100
2023-04-28T03:34:20.597Z,15.100
2023-04-28T03:35:21.085Z,15.100
2023-04-28T03:36:25.477Z,15.100
2023-04-28T03:37:22.472Z,15.200
2023-04-28T03:38:33.545Z,15.100
2023-04-28T03:39:24.693Z,15.100
2023-04-28T03:40:32.654Z,15.100
2023-04-28T03:41:24.338Z,15.200
2023-04-28T03:42:26.553Z,15.100
2023-04-28T03:43:25.473Z,15.100
2023-04-28T03:44:22.305Z,15.200
2023-04-28T03:45:32.416Z,15.200
2023-04-28T03:46:27.451Z,15.200
2023-04-28T03:47:25.420Z,15.100
2023-04-28T03:48:19.277Z,15.100
2023-04-28T03:49:20.973Z,15.100
2023-04-28T03:52:31.164Z,15.100
2023-04-28T03:53:28.483Z,15.100
2023-04-28T03:54:24.109Z,15.100
2023-04-28T03:55:21.355Z,15.100
2023-04-28T03:56:25.269Z,15.100
2023-04-28T03:57:28.444Z,15.100
2023-04-28T03:59:32.450Z,15.000
2023-04-28T04:00:27.402Z,15.000
2023-04-28T04:01:26.275Z,15.000
2023-04-28T04:02:19.860Z,15.000
2023-04-28T04:03:38.002Z,15.000
2023-04-28T04:04:22.717Z,15.000
2023-04-28T04:05:24.053Z,15.000
2023-04-28T04:07:24.151Z,15.000
2023-04-28T04:08:23.035Z,14.950
2023-04-28T04:09:21.303Z,14.900
2023-04-28T04:10:29.603Z,14.900
2023-04-28T04:12:28.168Z,14.900
2023-04-28T04:13:21.634Z,14.900
2023-04-28T04:14:28.245Z,14.900
2023-04-28T04:15:23.035Z,14.900
2023-04-28T04:16:21.432Z,14.850
2023-04-28T04:17:31.809Z,14.800
2023-04-28T04:18:20.352Z,14.800
2023-04-28T04:19:26.267Z,14.800
2023-04-28T04:20:25.297Z,14.800
2023-04-28T04:22:25.455Z,14.700
2023-04-28T04:23:19.053Z,14.700
2023-04-28T04:24:26.202Z,14.800
2023-04-28T04:25:25.876Z,14.800
2023-04-28T04:27:22.288Z,14.700
2023-04-28T04:28:22.183Z,14.700
2023-04-28T04:29:23.503Z,14.800
2023-04-28T04:30:31.075Z,14.800
2023-04-28T04:31:22.885Z,14.800
2023-04-28T04:32:27.683Z,14.700
2023-04-28T04:33:21.142Z,14.800
2023-04-28T04:34:24.094Z,14.700
2023-04-28T04:35:22.426Z,14.700
2023-04-28T04:37:18.987Z,14.700
2023-04-28T04:38:25.577Z,14.700
2023-04-28T04:39:42.902Z,14.700
2023-04-28T04:40:34.982Z,14.700
2023-04-28T04:43:23.444Z,14.700
2023-04-28T04:45:29.109Z,14.700
2023-04-28T04:46:27.674Z,14.700
2023-04-28T04:47:21.703Z,14.700
2023-04-28T04:48:32.599Z,14.600
2023-04-28T04:49:28.284Z,14.600
2023-04-28T04:51:20.652Z,14.600
2023-04-28T04:53:25.459Z,14.500
2023-04-28T04:54:22.512Z,14.500
2023-04-28T04:55:33.466Z,14.500
2023-04-28T04:57:23.496Z,14.500
2023-04-28T04:58:20.058Z,14.500
2023-04-28T04:59:29.810Z,14.500
2023-04-28T05:00:21.518Z,14.500
2023-04-28T05:01:36.907Z,14.550
2023-04-28T05:02:31.387Z,14.600
2023-04-28T05:03:20.767Z,14.600
2023-04-28T05:04:23.947Z,14.600
2023-04-28T05:05:21.969Z,14.700
2023-04-28T05:06:29.301Z,14.700
2023-04-28T05:08:21.646Z,14.700
2023-04-28T05:09:25.144Z,14.700
2023-04-28T05:10:28.838Z,14.700
2023-04-28T05:11:19.733Z,14.700
2023-04-28T05:12:19.416Z,14.700
2023-04-28T05:14:19.284Z,14.700
2023-04-28T05:15:21.779Z,14.700
2023-04-28T05:16:31.582Z,14.700
2023-04-28T05:17:27.004Z,14.750
2023-04-28T05:18:24.210Z,14.800
2023-04-28T05:19:19.119Z,14.800
2023-04-28T05:21:25.271Z,14.800
2023-04-28T05:22:21.402Z,14.900
2023-04-28T05:23:53.522Z,14.900
2023-04-28T05:24:29.154Z,14.900
2023-04-28T05:25:25.644Z,15.000
2023-04-28T05:27:26.370Z,15.000
2023-04-28T05:28:29.400Z,15.100
2023-04-28T05:29:21.374Z,15.100
2023-04-28T05:30:33.058Z,15.100
2023-04-28T05:31:27.343Z,15.100
2023-04-28T05:32:24.190Z,15.150
2023-04-28T05:35:21.001Z,15.200
2023-04-28T05:36:25.179Z,15.200
2023-04-28T05:38:27.434Z,15.200
2023-04-28T05:39:26.045Z,15.300
2023-04-28T05:40:19.125Z,15.300
2023-04-28T05:41:33.053Z,15.400
2023-04-28T05:42:26.407Z,15.400
2023-04-28T05:43:21.781Z,15.400
2023-04-28T05:44:22.178Z,15.400
2023-04-28T05:45:27.569Z,15.400
2023-04-28T05:46:30.608Z,15.400
2023-04-28T05:47:21.289Z,15.400
2023-04-28T05:48:21.164Z,15.400
2023-04-28T05:49:27.309Z,15.500
2023-04-28T05:50:22.918Z,15.500
2023-04-28T05:51:28.050Z,15.500
2023-04-28T05:52:19.354Z,15.500
2023-04-28T05:53:56.245Z,15.500
2023-04-28T05:54:19.967Z,15.500
2023-04-28T05:55:30.974Z,15.500
2023-04-28T05:56:25.961Z,15.500
2023-04-28T05:57:23.334Z,15.600
2023-04-28T05:58:19.806Z,15.600
2023-04-28T05:59:23.601Z,15.600
2023-04-28T06:00:23.385Z,15.600
2023-04-28T06:01:19.537Z,15.700
2023-04-28T06:02:30.263Z,15.700
2023-04-28T06:03:25.474Z,15.800
2023-04-28T06:04:21.892Z,15.800
2023-04-28T06:05:22.812Z,15.900
2023-04-28T06:08:19.606Z,16.000
2023-04-28T06:09:29.806Z,16.100
2023-04-28T06:10:26.073Z,16.150
2023-04-28T06:11:22.097Z,16.200
2023-04-28T06:12:26.982Z,16.200
2023-04-28T06:13:20.532Z,16.200
2023-04-28T06:14:25.277Z,16.200
2023-04-28T06:16:22.297Z,16.200
2023-04-28T06:17:27.202Z,16.250
2023-04-28T06:18:21.264Z,16.300
2023-04-28T06:19:32.845Z,16.300
2023-04-28T06:20:23.908Z,16.400
2023-04-28T06:21:23.447Z,16.400
2023-04-28T06:22:21.833Z,16.400
2023-04-28T06:24:25.374Z,16.500
2023-04-28T06:25:21.117Z,16.550
2023-04-28T06:26:35.295Z,16.600
2023-04-28T06:27:28.467Z,16.700
2023-04-28T06:28:24.888Z,16.700
2023-04-28T06:29:20.196Z,16.800
2023-04-28T06:30:26.358Z,16.800
2023-04-28T06:31:25.392Z,16.800
2023-04-28T06:32:21.456Z,16.800
2023-04-28T06:33:22.538Z,16.850
2023-04-28T06:34:21.381Z,16.900
2023-04-28T06:35:27.500Z,16.900
2023-04-28T06:37:23.343Z,17.000
2023-04-28T06:38:25.564Z,17.000
2023-04-28T06:40:34.783Z,17.200
2023-04-28T06:41:24.629Z,17.300
2023-04-28T06:42:26.421Z,17.300
2023-04-28T06:43:21.901Z,17.300
2023-04-28T06:44:29.548Z,17.300
2023-04-28T06:45:18.995Z,17.300
2023-04-28T06:48:45.408Z,17.300
2023-04-28T06:49:24.141Z,17.300
2023-04-28T06:50:19.304Z,17.400
2023-04-28T06:51:31.953Z,17.400
2023-04-28T06:52:33.380Z,17.500
2023-04-28T06:54:34.415Z,17.500
2023-04-28T06:55:27.259Z,17.600
2023-04-28T06:57:19.659Z,17.500
2023-04-28T06:58:22.884Z,17.600
2023-04-28T06:59:27.126Z,17.500
2023-04-28T07:00:22.297Z,17.500
2023-04-28T07:02:30.456Z,17.600
2023-04-28T07:03:21.311Z,17.600
2023-04-28T07:04:22.537Z,17.600
2023-04-28T07:05:31.147Z,17.600
2023-04-28T07:06:20.043Z,17.600
2023-04-28T07:07:21.349Z,17.700
2023-04-28T07:08:31.087Z,17.700
2023-04-28T07:09:27.366Z,17.700
2023-04-28T07:10:39.929Z,17.700
2023-04-28T07:12:29.379Z,17.800
2023-04-28T07:13:25.469Z,17.800
2023-04-28T07:14:23.355Z,17.900
2023-04-28T07:15:33.269Z,17.900
2023-04-28T07:17:27.960Z,18.100
2023-04-28T07:18:19.291Z,18.200
2023-04-28T07:20:28.969Z,18.200
2023-04-28T07:21:22.111Z,18.300
2023-04-28T07:22:29.211Z,18.300
2023-04-28T07:23:20.545Z,18.400
2023-04-28T07:24:25.629Z,18.400
2023-04-28T07:25:19.327Z,18.400
2023-04-28T07:26:29.655Z,18.500
2023-04-28T07:27:32.166Z,18.500
2023-04-28T07:28:21.434Z,18.600
2023-04-28T07:29:20.207Z,18.600
2023-04-28T07:30:28.408Z,18.600
2023-04-28T07:31:23.419Z,18.600
2023-04-28T07:32:35.371Z,18.500
2023-04-28T07:33:30.012Z,18.500
2023-04-28T07:34:26.561Z,18.500
2023-04-28T07:35:21.480Z,18.500
2023-04-28T07:36:21.961Z,18.500
2023-04-28T07:37:29.741Z,18.600
2023-04-28T07:39:19.660Z,18.700
2023-04-28T07:40:30.705Z,18.700
2023-04-28T07:41:27.713Z,18.800
2023-04-28T07:42:21.366Z,18.900
2023-04-28T07:43:28.196Z,19.000
2023-04-28T07:44:27.395Z,19.000
2023-04-28T07:46:23.893Z,19.000
2023-04-28T07:47:31.294Z,19.100
2023-04-28T07:48:25.450Z,19.100
2023-04-28T07:49:22.945Z,19.100
2023-04-28T07:50:21.326Z,19.100
2023-04-28T07:51:23.069Z,18.900
2023-04-28T07:53:19.355Z,18.900
2023-04-28T07:55:25.642Z,19.000
2023-04-28T07:56:23.066Z,19.050
2023-04-28T07:57:23.650Z,19.200
2023-04-28T07:58:27.365Z,19.300
2023-04-28T08:01:20.485Z,19.500
2023-04-28T08:02:25.826Z,19.500
2023-04-28T08:03:25.268Z,19.500
2023-04-28T08:04:27.481Z,19.450
2023-04-28T08:05:32.566Z,19.500
2023-04-28T08:06:23.603Z,19.500
2023-04-28T08:07:21.488Z,19.500
2023-04-28T08:08:21.761Z,19.500
2023-04-28T08:09:26.004Z,19.600
2023-04-28T08:10:21.728Z,19.600
2023-04-28T08:11:31.735Z,19.700
2023-04-28T08:12:27.516Z,19.800
2023-04-28T08:13:25.613Z,19.800
2023-04-28T08:14:20.780Z,19.800
2023-04-28T08:15:24.993Z,19.900
2023-04-28T08:16:22.034Z,19.900
2023-04-28T08:17:21.601Z,19.900
2023-04-28T08:18:32.596Z,19.900
2023-04-28T08:19:19.691Z,19.900
2023-04-28T08:21:19.830Z,19.800
2023-04-28T08:22:29.414Z,19.800
2023-04-28T08:23:26.985Z,19.800
2023-04-28T08:25:33.116Z,19.700
2023-04-28T08:26:27.471Z,19.800
2023-04-28T08:27:25.221Z,19.800
2023-04-28T08:28:19.715Z,19.800
2023-04-28T08:29:32.330Z,19.800
2023-04-28T08:30:25.552Z,19.800
2023-04-28T08:31:23.624Z,19.800
2023-04-28T08:33:28.528Z,19.800
2023-04-28T08:34:23.572Z,19.850
2023-04-28T08:35:20.741Z,19.800
2023-04-28T08:36:29.816Z,19.900
2023-04-28T08:37:21.825Z,19.900
2023-04-28T08:38:22.766Z,20.000
2023-04-28T08:39:21.771Z,20.000
2023-04-28T08:40:30.657Z,20.100
2023-04-28T08:42:21.111Z,20.100
2023-04-28T08:43:31.868Z,20.000
2023-04-28T08:44:26.420Z,20.000
2023-04-28T08:45:23.245Z,20.000
2023-04-28T08:47:27.790Z,20.000
2023-04-28T08:48:24.879Z,20.100
2023-04-28T08:49:19.651Z,20.100
2023-04-28T08:50:30.588Z,20.200
2023-04-28T08:51:28.436Z,20.200
2023-04-28T08:54:26.883Z,20.400
2023-04-28T08:55:23.994Z,20.500
2023-04-28T08:56:19.090Z,20.500
2023-04-28T08:57:30.928Z,20.450
2023-04-28T08:58:25.768Z,20.400
2023-04-28T08:59:25.294Z,20.300
2023-04-28T09:00:35.551Z,20.300
2023-04-28T09:02:24.529Z,20.300
2023-04-28T09:03:19.854Z,20.300
2023-04-28T09:04:30.523Z,20.450
2023-04-28T09:05:28.662Z,20.500
2023-04-28T09:08:32.471Z,20.800
2023-04-28T09:10:19.849Z,20.800
2023-04-28T09:11:32.536Z,20.800
2023-04-28T09:12:26.853Z,20.800
2023-04-28T09:13:22.543Z,20.800
2023-04-28T09:14:24.762Z,20.900
2023-04-28T09:15:28.146Z,21.000
2023-04-28T09:16:25.124Z,21.000
2023-04-28T09:17:20.361Z,21.100
2023-04-28T09:19:27.333Z,21.200
2023-04-28T09:20:21.772Z,21.200
2023-04-28T09:21:31.449Z,21.200
2023-04-28T09:23:25.639Z,21.100
2023-04-28T09:24:21.202Z,21.200
2023-04-28T09:25:29.459Z,21.100
2023-04-28T09:26:28.831Z,21.200
2023-04-28T09:27:21.815Z,21.100
2023-04-28T09:28:34.392Z,21.100
2023-04-28T09:29:29.538Z,21.100
2023-04-28T09:30:23.544Z,21.200
2023-04-28T09:32:22.408Z,21.200
2023-04-28T09:33:30.254Z,21.100
2023-04-28T09:34:21.676Z,21.100
2023-04-28T09:35:37.150Z,21.050
2023-04-28T09:36:32.468Z,21.100
2023-04-28T09:37:23.673Z,21.200
2023-04-28T09:38:20.951Z,21.200
2023-04-28T09:40:25.448Z,21.300
2023-04-28T09:41:21.645Z,21.300
2023-04-28T09:42:21.369Z,21.400
2023-04-28T09:44:25.444Z,21.500
2023-04-28T09:46:30.426Z,21.500
2023-04-28T09:48:21.517Z,21.500
2023-04-28T09:49:24.572Z,21.600
2023-04-28T09:50:28.468Z,21.650
2023-04-28T09:51:25.267Z,21.700
2023-04-28T09:53:21.737Z,21.800
2023-04-28T09:54:27.468Z,21.800
2023-04-28T09:57:27.870Z,21.800
2023-04-28T09:58:24.869Z,21.800
2023-04-28T10:00:23.133Z,21.900
2023-04-28T10:01:25.951Z,21.900
2023-04-28T10:03:33.672Z,22.000
2023-04-28T10:05:24.808Z,22.100
2023-04-28T10:06:19.484Z,22.100
2023-04-28T10:07:25.487Z,22.200
2023-04-28T10:08:25.825Z,22.200
2023-04-28T10:09:22.117Z,22.200
2023-04-28T10:11:20.594Z,22.300
2023-04-28T10:12:26.199Z,22.300
2023-04-28T10:13:19.319Z,22.350
2023-04-28T10:14:29.766Z,22.400
2023-04-28T10:15:23.720Z,22.400
2023-04-28T10:16:21.853Z,22.400
2023-04-28T10:17:25.837Z,22.400
2023-04-28T10:18:23.513Z,22.400
2023-04-28T10:19:24.013Z,22.500
2023-04-28T10:20:21.311Z,22.500
2023-04-28T10:21:34.323Z,22.500
2023-04-28T10:22:25.683Z,22.600
2023-04-28T10:23:23.542Z,22.600
2023-04-28T10:24:33.748Z,22.700
2023-04-28T10:25:24.008Z,22.800
2023-04-28T10:26:23.736Z,22.900
2023-04-28T10:27:19.866Z,22.900
2023-04-28T10:28:29.603Z,22.950
2023-04-28T10:29:25.683Z,23.000
2023-04-28T10:30:28.184Z,23.000
2023-04-28T10:31:32.566Z,23.000
2023-04-28T10:32:29.759Z,23.000
2023-04-28T10:33:21.046Z,23.000
2023-04-28T10:34:35.233Z,23.000
2023-04-28T10:35:29.545Z,22.900
2023-04-28T10:36:33.642Z,22.900
2023-04-28T10:37:23.377Z,22.900
2023-04-28T10:38:20.322Z,23.000
2023-04-28T10:39:27.534Z,23.000
2023-04-28T10:40:26.885Z,23.000
2023-04-28T10:42:30.924Z,23.100
2023-04-28T10:43:28.722Z,23.150
2023-04-28T10:44:21.727Z,23.200
2023-04-28T10:46:27.792Z,23.100
2023-04-28T10:47:23.667Z,23.100
2023-04-28T10:48:21.886Z,23.100
2023-04-28T10:50:36.073Z,23.200
2023-04-28T10:51:22.436Z,23.200
2023-04-28T10:52:29.282Z,23.300
2023-04-28T10:53:21.130Z,23.300
2023-04-28T10:54:27.593Z,23.300
2023-04-28T10:55:22.456Z,23.300
2023-04-28T10:56:29.842Z,23.300
2023-04-28T10:57:27.387Z,23.300
2023-04-28T10:58:21.540Z,23.250
2023-04-28T10:59:32.635Z,23.200
2023-04-28T11:00:30.115Z,23.200
2023-04-28T11:01:23.590Z,23.200
2023-04-28T11:02:20.386Z,23.200
2023-04-28T11:03:25.685Z,23.200
2023-04-28T11:04:25.720Z,23.300
2023-04-28T11:05:25.738Z,23.300
2023-04-28T11:06:37.247Z,23.350
2023-04-28T11:07:28.902Z,23.500
2023-04-28T11:09:19.588Z,23.500
2023-04-28T11:11:20.715Z,23.500
2023-04-28T11:12:21.466Z,23.600
2023-04-28T11:13:32.324Z,23.500
2023-04-28T11:14:24.589Z,23.550
2023-04-28T11:15:28.347Z,23.600
2023-04-28T11:17:31.392Z,23.600
2023-04-28T11:19:22.662Z,23.700
2023-04-28T11:20:29.648Z,23.700
2023-04-28T11:21:28.493Z,23.700
2023-04-28T11:23:19.373Z,23.700
2023-04-28T11:24:30.603Z,23.700
2023-04-28T11:25:24.033Z,23.700
2023-04-28T11:26:21.912Z,23.800
2023-04-28T11:28:27.792Z,23.900
2023-04-28T11:29:25.894Z,23.850
2023-04-28T11:30:19.871Z,23.900
2023-04-28T11:31:20.481Z,23.900
2023-04-28T11:33:22.725Z,23.900
2023-04-28T11:34:24.787Z,24.000
2023-04-28T11:35:29.525Z,23.900
2023-04-28T11:36:23.779Z,23.950
2023-04-28T11:37:19.851Z,24.000
2023-04-28T11:38:23.928Z,24.100
2023-04-28T11:39:25.755Z,24.100
2023-04-28T11:41:27.960Z,24.100
2023-04-28T11:42:23.444Z,24.100
2023-04-28T11:43:28.956Z,24.100
2023-04-28T11:44:19.886Z,24.100
2023-04-28T11:45:22.239Z,24.100
2023-04-28T11:46:22.187Z,24.200
2023-04-28T11:47:21.715Z,24.200
2023-04-28T11:48:28.815Z,24.300
2023-04-28T11:49:20.369Z,24.300
2023-04-28T11:50:23.732Z,24.200
2023-04-28T11:51:21.239Z,24.200
2023-04-28T11:52:24.444Z,24.200
2023-04-28T11:53:22.218Z,24.100
2023-04-28T11:54:23.875Z,24.100
2023-04-28T11:55:32.962Z,24.100
2023-04-28T11:56:24.857Z,24.100
2023-04-28T11:57:23.597Z,24.100
2023-04-28T11:58:20.527Z,24.200
2023-04-28T11:59:29.449Z,24.250
2023-04-28T12:00:25.526Z,24.300
2023-04-28T12:02:37.779Z,24.300
2023-04-28T12:05:19.690Z,24.300
2023-04-28T12:06:41.827Z,24.300
2023-04-28T12:07:25.521Z,24.300
2023-04-28T12:08:21.957Z,24.300
2023-04-28T12:09:32.730Z,24.400
2023-04-28T12:11:26.201Z,24.400
2023-04-28T12:13:33.826Z,24.400
2023-04-28T12:14:19.728Z,24.400
2023-04-28T12:15:22.498Z,24.400
2023-04-28T12:16:23.182Z,24.400
2023-04-28T12:17:28.051Z,24.400
2023-04-28T12:18:23.469Z,24.400
2023-04-28T12:19:19.579Z,24.400
2023-04-28T12:20:29.892Z,24.400
2023-04-28T12:21:21.571Z,24.400
2023-04-28T12:22:22.466Z,24.450
2023-04-28T12:23:27.038Z,24.500
2023-04-28T12:24:21.611Z,24.500
2023-04-28T12:25:23.952Z,24.600
2023-04-28T12:26:19.540Z,24.500
2023-04-28T12:28:27.208Z,24.300
2023-04-28T12:29:22.150Z,24.400
2023-04-28T12:30:34.070Z,24.400
2023-04-28T12:31:24.305Z,24.400
2023-04-28T12:32:24.587Z,24.400
2023-04-28T12:33:19.554Z,24.400
2023-04-28T12:34:24.677Z,24.400
2023-04-28T12:35:30.419Z,24.400
2023-04-28T12:36:23.035Z,24.200
2023-04-28T12:37:32.754Z,24.300
2023-04-28T12:38:23.680Z,24.400
2023-04-28T12:39:21.238Z,24.200
2023-04-28T12:40:20.875Z,24.200
2023-04-28T12:41:31.341Z,24.200
2023-04-28T12:42:22.479Z,24.200
2023-04-28T12:43:21.892Z,24.200
2023-04-28T12:44:27.230Z,24.200
2023-04-28T12:45:28.505Z,24.200
2023-04-28T12:46:26.438Z,24.200
2023-04-28T12:47:21.322Z,24.200
2023-04-28T12:48:29.680Z,24.200
2023-04-28T12:49:25.704Z,24.300
2023-04-28T12:51:33.177Z,24.300
2023-04-28T12:52:27.731Z,24.300
2023-04-28T12:53:23.733Z,24.300
2023-04-28T12:54:23.543Z,24.300
2023-04-28T12:55:23.050Z,24.200
2023-04-28T12:56:25.665Z,24.200
2023-04-28T12:57:25.585Z,24.200
2023-04-28T12:59:27.593Z,24.100
2023-04-28T13:00:23.746Z,24.150
2023-04-28T13:01:19.900Z,24.200
2023-04-28T13:02:29.724Z,24.300
2023-04-28T13:03:26.537Z,24.300
2023-04-28T13:04:21.846Z,24.200
2023-04-28T13:05:20.516Z,24.200
2023-04-28T13:06:20.715Z,24.300
2023-04-28T13:07:25.139Z,24.200
2023-04-28T13:08:23.103Z,24.250
2023-04-28T13:09:22.637Z,24.300
2023-04-28T13:10:25.535Z,24.300
2023-04-28T13:11:23.066Z,24.300
2023-04-28T13:12:26.288Z,24.300
2023-04-28T13:13:28.270Z,24.200
2023-04-28T13:14:25.552Z,24.300
2023-04-28T13:15:20.587Z,24.200
2023-04-28T13:16:27.578Z,24.100
2023-04-28T13:17:19.824Z,24.000
2023-04-28T13:18:23.421Z,24.100
2023-04-28T13:20:23.827Z,24.100
2023-04-28T13:21:23.743Z,24.100
2023-04-28T13:22:21.008Z,24.100
2023-04-28T13:23:30.909Z,24.150
2023-04-28T13:24:27.319Z,24.100
2023-04-28T13:25:21.616Z,24.100
2023-04-28T13:26:23.491Z,24.200
2023-04-28T13:27:30.185Z,24.100
2023-04-28T13:28:23.456Z,24.100
2023-04-28T13:29:21.050Z,24.100
2023-04-28T13:30:29.905Z,24.050
2023-04-28T13:31:28.333Z,24.100
2023-04-28T13:32:23.435Z,24.200
2023-04-28T13:33:26.493Z,24.200
2023-04-28T13:34:19.789Z,24.200
2023-04-28T13:35:25.028Z,24.200
2023-04-28T13:36:19.745Z,24.300
2023-04-28T13:37:32.198Z,24.300
2023-04-28T13:38:26.693Z,24.550
2023-04-28T13:39:22.252Z,24.700
2023-04-28T13:40:25.908Z,24.700
2023-04-28T13:41:27.904Z,24.700
2023-04-28T13:42:23.651Z,24.700
2023-04-28T13:43:19.987Z,24.700
2023-04-28T13:45:25.935Z,24.800
2023-04-28T13:46:22.014Z,24.800
2023-04-28T13:47:22.326Z,24.900
2023-04-28T13:49:24.015Z,25.100
2023-04-28T13:50:19.701Z,25.100
2023-04-28T13:51:21.292Z,25.100
2023-04-28T13:53:21.876Z,25.350
2023-04-28T13:54:26.534Z,25.400
2023-04-28T13:55:30.054Z,25.400
2023-04-28T13:57:20.504Z,25.200
2023-04-28T13:58:21.837Z,25.100
2023-04-28T13:59:26.441Z,25.000
2023-04-28T14:00:23.978Z,25.000
2023-04-28T14:01:33.275Z,24.750
2023-04-28T14:02:28.487Z,24.800
2023-04-28T14:03:25.724Z,24.800
2023-04-28T14:04:19.876Z,24.800
2023-04-28T14:05:26.808Z,24.800
2023-04-28T14:06:21.155Z,24.800
2023-04-28T14:07:22.828Z,24.600
2023-04-28T14:08:26.479Z,24.450
2023-04-28T14:09:28.720Z,24.400
2023-04-28T14:10:20.029Z,24.500
2023-04-28T14:11:20.877Z,24.400
2023-04-28T14:14:21.763Z,24.200
2023-04-28T14:15:31.865Z,24.200
2023-04-28T14:16:27.310Z,24.050
2023-04-28T14:17:24.120Z,24.000
2023-04-28T14:18:21.157Z,24.000
2023-04-28T14:19:20.874Z,24.000
2023-04-28T14:20:28.056Z,24.000
2023-04-28T14:22:32.099Z,24.000
2023-04-28T14:23:29.664Z,24.000
2023-04-28T14:24:24.496Z,23.950
2023-04-28T14:25:20.772Z,23.900
2023-04-28T14:26:31.293Z,23.900
2023-04-28T14:27:25.619Z,23.900
2023-04-28T14:28:24.339Z,23.900
2023-04-28T14:30:30.025Z,23.800
2023-04-28T14:31:25.359Z,23.800
2023-04-28T14:32:19.680Z,23.800
2023-04-28T14:33:29.734Z,23.800
2023-04-28T14:34:25.511Z,23.900
2023-04-28T14:35:21.218Z,23.800
2023-04-28T14:36:23.781Z,23.800
2023-04-28T14:37:27.986Z,23.900
2023-04-28T14:38:23.765Z,23.800
2023-04-28T14:39:21.480Z,23.850
2023-04-28T14:40:31.493Z,23.800
2023-04-28T14:41:25.939Z,23.800
2023-04-28T14:42:21.586Z,23.800